Time;durP1;ratioP1;P1;durP2;ratioP2;P2;SDS_P1;SDS_P2;PMS_P1;PMS_P2;Temp;Humidity;BMP_temperature;BMP_pressure;BME280_temperature;BME280_humidity;BME280_pressure;Samples;Min_cycle;Max_cycle;Signal;HPM_P1;HPM_P2
2023/12/31 00:00:10;;;;;;;5.32;2.45;;;8.50;99.90;;;;;;5058053;28;20382;-70
2023/12/31 00:02:37;;;;;;;7.95;3.45;;;8.50;99.90;;;;;;5058025;28;20142;-70
2023/12/31 00:05:04;;;;;;;8.23;3.83;;;8.50;99.90;;;;;;5041558;28;20101;-70
2023/12/31 00:07:30;;;;;;;6.78;3.60;;;8.50;99.90;;;;;;5058033;28;20071;-70
2023/12/31 00:09:56;;;;;;;6.63;3.17;;;8.50;99.90;;;;;;5058220;28;20493;-70
2023/12/31 00:12:21;;;;;;;7.50;3.08;;;8.50;99.90;;;;;;5041577;28;20037;-70
2023/12/31 00:14:47;;;;;;;9.50;3.45;;;8.50;99.90;;;;;;5041154;28;20047;-69
2023/12/31 00:17:13;;;;;;;9.40;3.53;;;8.50;99.90;;;;;;5024937;28;20037;-71
2023/12/31 00:19:39;;;;;;;8.20;3.60;;;8.50;99.90;;;;;;5057655;28;20063;-70
2023/12/31 00:22:05;;;;;;;7.88;3.63;;;8.50;99.90;;;;;;5024648;28;20032;-70
2023/12/31 00:24:30;;;;;;;7.20;3.50;;;8.50;99.90;;;;;;5057952;28;20044;-71
2023/12/31 00:26:56;;;;;;;8.02;3.70;;;8.50;99.90;;;;;;5041076;28;20090;-70
2023/12/31 00:29:22;;;;;;;7.38;3.60;;;8.40;99.90;;;;;;5024662;28;20040;-70
2023/12/31 00:31:48;;;;;;;6.63;3.00;;;8.50;99.90;;;;;;5057433;28;20036;-70
2023/12/31 00:34:14;;;;;;;6.75;3.17;;;8.50;99.90;;;;;;5040166;28;20040;-71
2023/12/31 00:36:39;;;;;;;6.70;3.05;;;8.50;99.90;;;;;;5056904;28;20378;-76
2023/12/31 00:39:05;;;;;;;6.68;3.08;;;8.50;99.90;;;;;;5057422;28;20045;-76
2023/12/31 00:41:31;;;;;;;6.53;3.00;;;8.50;99.90;;;;;;5041062;28;20039;-76
2023/12/31 00:43:57;;;;;;;7.95;2.92;;;8.50;99.90;;;;;;5040681;28;20047;-76
2023/12/31 00:46:23;;;;;;;8.13;3.30;;;8.50;99.90;;;;;;5057192;28;20123;-76
2023/12/31 00:48:49;;;;;;;7.13;3.10;;;8.50;99.90;;;;;;5040725;28;20127;-76
2023/12/31 00:51:15;;;;;;;7.60;3.42;;;8.40;99.90;;;;;;5057089;28;20045;-77
2023/12/31 00:53:41;;;;;;;7.03;3.10;;;8.40;99.90;;;;;;5057066;28;20128;-76
2023/12/31 00:56:09;;;;;;;5.97;3.05;;;8.40;99.90;;;;;;5024002;28;20043;-77
2023/12/31 00:58:35;;;;;;;7.45;3.10;;;8.40;99.90;;;;;;5040288;28;20155;-76
2023/12/31 01:01:01;;;;;;;8.20;3.28;;;8.40;99.90;;;;;;5040333;28;20055;-77
2023/12/31 01:03:27;;;;;;;6.75;2.92;;;8.40;99.90;;;;;;5040346;28;20041;-77
2023/12/31 01:05:52;;;;;;;5.93;2.40;;;8.50;99.90;;;;;;5040605;28;20039;-77
2023/12/31 01:08:18;;;;;;;7.07;2.63;;;8.50;99.90;;;;;;5040499;28;20040;-76
2023/12/31 01:10:44;;;;;;;7.68;3.13;;;8.50;99.90;;;;;;5040302;28;20051;-76
2023/12/31 01:13:10;;;;;;;7.00;2.90;;;8.50;99.90;;;;;;5039964;28;20051;-76
2023/12/31 01:15:35;;;;;;;6.68;2.90;;;8.40;99.90;;;;;;5040077;28;20082;-77
2023/12/31 01:18:01;;;;;;;7.10;3.13;;;8.50;99.90;;;;;;5039988;28;20043;-76
2023/12/31 01:20:27;;;;;;;5.35;2.53;;;8.40;99.90;;;;;;5056878;28;20198;-77
2023/12/31 01:22:53;;;;;;;6.72;2.85;;;8.50;99.90;;;;;;5040347;28;20033;-76
2023/12/31 01:25:18;;;;;;;7.40;3.00;;;8.50;99.90;;;;;;5040186;28;20127;-76
2023/12/31 01:27:44;;;;;;;6.22;2.90;;;8.50;99.90;;;;;;5056581;28;20040;-76
2023/12/31 01:30:12;;;;;;;5.97;2.92;;;8.50;99.90;;;;;;5039875;28;20036;-76
2023/12/31 01:32:37;;;;;;;6.40;2.92;;;8.40;99.90;;;;;;5040089;28;20046;-77
2023/12/31 01:35:04;;;;;;;5.97;2.70;;;8.40;99.90;;;;;;5023170;28;20055;-76
2023/12/31 01:37:29;;;;;;;5.72;2.70;;;8.40;99.90;;;;;;5039903;28;20374;-77
2023/12/31 01:39:56;;;;;;;6.13;2.55;;;8.40;99.90;;;;;;5039641;28;20062;-77
2023/12/31 01:42:22;;;;;;;6.05;2.63;;;8.40;99.90;;;;;;5040042;28;20523;-76
2023/12/31 01:44:48;;;;;;;5.50;2.55;;;8.30;99.90;;;;;;5056008;28;20076;-77
2023/12/31 01:47:15;;;;;;;5.25;2.25;;;8.30;99.90;;;;;;5039508;28;20151;-77
2023/12/31 01:49:41;;;;;;;5.80;2.70;;;8.30;99.90;;;;;;5056102;28;20041;-76
2023/12/31 01:52:07;;;;;;;5.45;2.50;;;8.30;99.90;;;;;;5039581;28;20474;-77
2023/12/31 01:54:33;;;;;;;4.93;2.38;;;8.30;99.90;;;;;;5039477;28;20048;-74
2023/12/31 01:56:59;;;;;;;6.32;2.70;;;8.30;99.90;;;;;;5055922;28;20033;-76
2023/12/31 01:59:25;;;;;;;6.40;2.40;;;8.20;99.90;;;;;;5055789;28;20094;-77
2023/12/31 02:01:52;;;;;;;6.10;2.10;;;8.10;99.90;;;;;;5022771;28;20158;-76
2023/12/31 02:04:20;;;;;;;5.45;2.40;;;8.10;99.90;;;;;;5006677;28;20512;-76
2023/12/31 02:06:46;;;;;;;5.75;2.20;;;8.10;99.90;;;;;;5055945;28;20044;-76
2023/12/31 02:09:12;;;;;;;6.68;2.85;;;8.10;99.90;;;;;;5038983;28;20048;-76
2023/12/31 02:11:38;;;;;;;5.15;1.80;;;8.00;99.90;;;;;;5039337;28;20040;-76
2023/12/31 02:14:04;;;;;;;5.65;2.10;;;8.00;99.90;;;;;;5039124;28;20048;-76
2023/12/31 02:16:30;;;;;;;5.55;2.40;;;8.00;99.90;;;;;;5039145;28;20036;-76
2023/12/31 02:18:56;;;;;;;6.32;2.30;;;8.00;99.90;;;;;;5022592;28;20047;-76
2023/12/31 02:21:22;;;;;;;5.82;2.10;;;7.90;99.90;;;;;;5038950;28;20401;-76
2023/12/31 02:23:49;;;;;;;5.68;2.40;;;8.00;99.90;;;;;;5055718;28;20378;-76
2023/12/31 02:26:15;;;;;;;5.32;2.38;;;8.00;99.90;;;;;;5055450;28;20049;-76
2023/12/31 02:28:40;;;;;;;4.45;1.85;;;8.10;99.90;;;;;;5055594;28;20047;-76
2023/12/31 02:31:06;;;;;;;5.57;2.30;;;8.20;99.90;;;;;;5005908;28;20136;-76
2023/12/31 02:33:32;;;;;;;4.15;1.50;;;8.30;99.90;;;;;;5055164;28;20127;-76
2023/12/31 02:35:58;;;;;;;4.85;1.48;;;8.40;99.90;;;;;;5055419;28;20511;-75
2023/12/31 02:38:24;;;;;;;4.60;1.73;;;8.40;99.90;;;;;;5038841;28;20123;-76
2023/12/31 02:40:50;;;;;;;4.07;1.70;;;8.50;99.90;;;;;;5022530;28;20044;-76
2023/12/31 02:43:16;;;;;;;3.58;1.35;;;8.40;99.90;;;;;;5038506;28;20048;-76
2023/12/31 02:45:42;;;;;;;5.55;1.63;;;8.40;99.90;;;;;;5038444;28;20382;-76
2023/12/31 02:48:07;;;;;;;5.32;1.70;;;8.30;99.90;;;;;;5054980;28;20044;-75
2023/12/31 02:50:33;;;;;;;4.30;1.80;;;8.20;99.90;;;;;;5038282;28;20040;-75
2023/12/31 02:52:59;;;;;;;6.70;1.35;;;8.10;99.90;;;;;;5038213;28;20044;-76
2023/12/31 02:55:25;;;;;;;5.10;1.60;;;8.10;99.90;;;;;;5038865;28;20082;-76
2023/12/31 02:57:51;;;;;;;4.75;1.85;;;8.10;99.90;;;;;;5054083;28;20062;-70
2023/12/31 03:00:17;;;;;;;4.10;1.55;;;8.10;99.90;;;;;;5054824;28;20048;-71
2023/12/31 03:02:43;;;;;;;2.65;1.23;;;8.10;99.90;;;;;;5038678;28;20098;-70
2023/12/31 03:05:09;;;;;;;1.77;0.85;;;8.10;99.90;;;;;;5054789;28;20053;-70
2023/12/31 03:07:35;;;;;;;3.88;1.70;;;8.10;99.90;;;;;;5054930;28;20044;-70
2023/12/31 03:10:01;;;;;;;2.10;0.80;;;8.10;99.90;;;;;;5054722;28;20052;-70
2023/12/31 03:12:27;;;;;;;3.03;1.00;;;8.10;99.90;;;;;;5038345;28;20401;-70
2023/12/31 03:14:53;;;;;;;3.03;1.10;;;8.10;99.90;;;;;;5038071;28;20045;-70
2023/12/31 03:17:19;;;;;;;4.15;1.33;;;8.10;99.90;;;;;;5038505;28;20531;-70
2023/12/31 03:19:45;;;;;;;3.53;1.40;;;8.10;99.90;;;;;;5054902;28;20036;-70
2023/12/31 03:22:11;;;;;;;4.25;1.35;;;8.00;99.90;;;;;;5038084;28;20040;-71
2023/12/31 03:24:36;;;;;;;4.45;1.83;;;8.00;99.90;;;;;;5021576;28;20049;-70
2023/12/31 03:27:02;;;;;;;4.88;1.50;;;8.00;99.90;;;;;;5054608;28;20097;-70
2023/12/31 03:29:28;;;;;;;2.95;0.95;;;8.00;99.90;;;;;;5038023;28;20043;-70
2023/12/31 03:31:54;;;;;;;2.70;1.23;;;8.10;99.90;;;;;;5038304;28;20044;-70
2023/12/31 03:34:20;;;;;;;4.78;1.58;;;8.10;99.90;;;;;;5021392;28;20492;-71
2023/12/31 03:36:46;;;;;;;2.53;1.05;;;8.00;99.90;;;;;;5038145;28;20048;-70
2023/12/31 03:39:14;;;;;;;3.47;1.17;;;8.10;99.90;;;;;;5021613;28;20048;-70
2023/12/31 03:41:40;;;;;;;6.22;1.55;;;8.00;99.90;;;;;;5038084;28;20040;-71
2023/12/31 03:44:06;;;;;;;2.70;1.20;;;8.10;99.90;;;;;;5038163;28;20060;-71
2023/12/31 03:46:32;;;;;;;3.30;1.50;;;8.00;99.90;;;;;;5037802;28;20036;-70
2023/12/31 03:48:57;;;;;;;3.65;1.52;;;8.00;99.90;;;;;;5021600;28;20040;-70
2023/12/31 03:51:24;;;;;;;4.72;1.75;;;8.00;99.90;;;;;;5054267;28;20131;-70
2023/12/31 03:53:50;;;;;;;2.65;1.08;;;8.00;99.90;;;;;;5037652;28;20090;-71
2023/12/31 03:56:16;;;;;;;2.83;1.30;;;8.10;99.90;;;;;;5021237;28;20033;-70
2023/12/31 03:58:42;;;;;;;1.95;0.93;;;8.10;99.90;;;;;;5053904;28;20056;-71
2023/12/31 04:01:07;;;;;;;2.78;1.17;;;8.10;99.90;;;;;;5054190;28;20076;-70
2023/12/31 04:03:33;;;;;;;4.93;1.85;;;8.10;99.90;;;;;;5037868;28;20051;-71
2023/12/31 04:05:59;;;;;;;4.78;1.00;;;8.00;99.90;;;;;;5054173;28;20511;-70
2023/12/31 04:08:25;;;;;;;4.22;1.55;;;8.10;99.90;;;;;;5021707;28;20036;-75
2023/12/31 04:10:51;;;;;;;5.82;2.08;;;8.00;99.90;;;;;;5041216;28;20048;-75
2023/12/31 04:13:20;;;;;;;4.80;1.90;;;8.00;99.90;;;;;;5058084;28;20047;-75
2023/12/31 04:15:46;;;;;;;2.97;1.33;;;8.10;99.90;;;;;;5041443;28;20078;-75
2023/12/31 04:18:12;;;;;;;3.28;1.40;;;8.10;99.90;;;;;;5024759;28;20090;-75
2023/12/31 04:20:37;;;;;;;4.18;1.35;;;8.10;99.90;;;;;;5041032;28;20055;-75
2023/12/31 04:23:03;;;;;;;3.95;1.60;;;8.10;99.90;;;;;;5041101;28;20036;-75
2023/12/31 04:25:30;;;;;;;5.30;2.38;;;8.00;99.90;;;;;;5057916;28;20070;-75
2023/12/31 04:27:58;;;;;;;5.03;1.52;;;8.10;99.90;;;;;;5024608;28;20040;-75
2023/12/31 04:30:23;;;;;;;4.38;1.70;;;8.00;99.90;;;;;;5024942;28;20504;-75
2023/12/31 04:32:49;;;;;;;2.67;1.10;;;8.00;99.90;;;;;;5041082;28;20037;-75
2023/12/31 04:35:15;;;;;;;6.50;2.22;;;8.00;99.90;;;;;;5040947;28;20041;-75
2023/12/31 04:37:41;;;;;;;4.45;1.98;;;8.10;99.90;;;;;;5041037;28;20040;-75
2023/12/31 04:40:07;;;;;;;3.80;1.50;;;8.00;99.90;;;;;;5057628;28;20045;-75
2023/12/31 04:42:33;;;;;;;5.35;1.65;;;8.00;99.90;;;;;;5057283;28;20037;-75
2023/12/31 04:45:04;;;;;;;4.85;2.03;;;8.00;99.90;;;;;;5040692;28;20098;-76
2023/12/31 04:47:30;;;;;;;5.63;2.25;;;8.10;99.90;;;;;;5041635;28;20370;-75
2023/12/31 04:49:55;;;;;;;3.30;1.40;;;8.10;99.90;;;;;;5024118;28;20102;-75
2023/12/31 04:52:21;;;;;;;5.10;2.50;;;8.10;99.90;;;;;;5040545;28;20067;-75
2023/12/31 04:54:47;;;;;;;3.97;1.80;;;8.10;99.90;;;;;;5056959;28;20044;-75
2023/12/31 04:57:12;;;;;;;5.03;2.10;;;8.10;99.90;;;;;;5040658;28;20033;-75
2023/12/31 04:59:39;;;;;;;5.47;1.55;;;8.10;99.90;;;;;;5040389;28;20055;-75
2023/12/31 05:02:05;;;;;;;4.18;1.95;;;8.10;99.90;;;;;;5040439;28;20045;-75
2023/12/31 05:04:31;;;;;;;6.03;2.65;;;8.10;99.90;;;;;;5056992;28;20262;-75
2023/12/31 05:06:58;;;;;;;7.07;2.72;;;8.20;99.90;;;;;;5056858;28;20131;-76
2023/12/31 05:09:24;;;;;;;4.40;1.30;;;8.20;99.90;;;;;;5056912;28;20047;-75
2023/12/31 05:11:50;;;;;;;4.50;1.92;;;8.20;99.90;;;;;;5040199;28;20040;-76
2023/12/31 05:14:16;;;;;;;6.57;2.30;;;8.20;99.90;;;;;;5040072;28;20043;-75
2023/12/31 05:16:41;;;;;;;3.72;1.40;;;8.20;99.90;;;;;;5040470;28;20396;-75
2023/12/31 05:19:07;;;;;;;4.47;2.03;;;8.20;99.90;;;;;;5024004;28;20032;-75
2023/12/31 05:21:33;;;;;;;5.40;2.10;;;8.20;99.90;;;;;;5055890;28;20075;-75
2023/12/31 05:24:00;;;;;;;4.53;2.00;;;8.20;99.90;;;;;;5040189;28;20044;-75
2023/12/31 05:26:26;;;;;;;4.07;1.63;;;8.20;99.90;;;;;;5056861;28;20452;-75
2023/12/31 05:28:52;;;;;;;4.97;2.55;;;8.20;99.90;;;;;;5040202;28;20044;-75
2023/12/31 05:31:18;;;;;;;6.65;2.10;;;8.30;99.90;;;;;;5056428;28;20051;-75
2023/12/31 05:33:44;;;;;;;7.63;2.47;;;8.20;99.90;;;;;;5056379;28;20105;-75
2023/12/31 05:36:11;;;;;;;3.63;1.50;;;8.30;99.90;;;;;;5023308;28;20032;-75
2023/12/31 05:38:37;;;;;;;5.70;2.63;;;8.30;99.90;;;;;;5040081;28;20086;-75
2023/12/31 05:41:02;;;;;;;4.63;1.70;;;8.30;99.90;;;;;;5056292;28;20087;-75
2023/12/31 05:43:28;;;;;;;4.47;1.75;;;8.40;99.90;;;;;;5056425;28;20151;-75
2023/12/31 05:45:54;;;;;;;3.17;1.42;;;8.30;99.90;;;;;;5039752;28;20119;-76
2023/12/31 05:48:21;;;;;;;3.55;1.55;;;8.30;99.90;;;;;;5039916;28;20127;-76
2023/12/31 05:50:47;;;;;;;3.75;1.58;;;8.30;99.90;;;;;;5023236;28;20048;-75
2023/12/31 05:53:13;;;;;;;5.15;2.67;;;8.30;99.90;;;;;;5039617;28;20048;-75
2023/12/31 05:55:39;;;;;;;3.13;1.27;;;8.30;99.90;;;;;;5055944;28;20043;-76
2023/12/31 05:58:05;;;;;;;4.85;1.15;;;8.30;99.90;;;;;;5055700;28;20186;-75
2023/12/31 06:00:30;;;;;;;3.80;1.77;;;8.30;99.90;;;;;;5056210;28;20041;-75
2023/12/31 06:02:56;;;;;;;4.97;2.15;;;8.30;99.90;;;;;;5039371;28;20040;-75
2023/12/31 06:05:22;;;;;;;3.40;1.40;;;8.40;99.90;;;;;;5055805;28;20040;-76
2023/12/31 06:07:48;;;;;;;4.30;1.88;;;8.40;99.90;;;;;;5055939;28;20033;-75
2023/12/31 06:10:14;;;;;;;4.20;1.30;;;8.40;99.90;;;;;;5055790;28;20082;-76
2023/12/31 06:12:39;;;;;;;3.17;1.27;;;8.40;99.90;;;;;;5055857;28;20036;-76
2023/12/31 06:15:06;;;;;;;3.17;1.20;;;8.50;99.90;;;;;;5038905;28;20076;-75
2023/12/31 06:17:35;;;;;;;3.28;1.15;;;8.50;99.90;;;;;;5038999;28;20043;-76
2023/12/31 06:20:02;;;;;;;4.13;1.67;;;8.50;99.90;;;;;;5055379;28;20045;-75
2023/12/31 06:22:28;;;;;;;2.83;1.13;;;8.50;99.90;;;;;;5055780;28;20438;-76
2023/12/31 06:24:54;;;;;;;5.65;2.13;;;8.60;99.90;;;;;;5055442;28;20090;-73
2023/12/31 06:27:20;;;;;;;5.25;2.20;;;8.60;99.90;;;;;;5039348;28;20102;-75
2023/12/31 06:29:45;;;;;;;5.00;1.55;;;8.60;99.90;;;;;;5022708;28;20048;-74
2023/12/31 06:32:11;;;;;;;5.25;2.20;;;8.60;99.90;;;;;;5039139;28;20043;-75
2023/12/31 06:34:37;;;;;;;4.65;1.63;;;8.60;99.90;;;;;;5038668;28;20045;-74
2023/12/31 06:37:03;;;;;;;5.03;1.70;;;8.70;99.90;;;;;;5055541;28;20079;-75
2023/12/31 06:39:29;;;;;;;4.20;1.63;;;8.70;99.90;;;;;;5038807;28;20043;-75
2023/12/31 06:41:55;;;;;;;6.00;1.83;;;8.70;99.90;;;;;;5039010;28;20037;-74
2023/12/31 06:44:21;;;;;;;3.95;1.58;;;8.70;99.90;;;;;;5038684;28;20036;-75
2023/12/31 06:46:47;;;;;;;3.22;1.45;;;8.70;99.90;;;;;;5055354;28;20484;-75
2023/12/31 06:49:13;;;;;;;1.95;0.88;;;8.70;99.90;;;;;;5038601;28;20090;-75
2023/12/31 06:51:39;;;;;;;3.15;1.40;;;8.70;99.90;;;;;;5054928;28;20123;-75
2023/12/31 06:54:05;;;;;;;3.83;1.25;;;8.70;99.90;;;;;;5038582;28;20036;-75
2023/12/31 06:56:31;;;;;;;4.60;1.85;;;8.70;99.90;;;;;;5054933;28;20036;-75
2023/12/31 06:58:56;;;;;;;3.97;1.63;;;8.70;99.90;;;;;;5054657;28;20075;-75
2023/12/31 07:01:22;;;;;;;4.15;1.85;;;8.70;99.90;;;;;;5038499;28;20083;-75
2023/12/31 07:03:48;;;;;;;4.50;1.95;;;8.70;99.90;;;;;;5055122;28;20047;-75
2023/12/31 07:06:14;;;;;;;4.18;1.60;;;8.70;99.90;;;;;;5021788;28;20051;-74
2023/12/31 07:08:39;;;;;;;2.65;1.10;;;8.70;99.90;;;;;;5038382;28;20041;-75
2023/12/31 07:11:05;;;;;;;5.40;2.08;;;8.80;99.90;;;;;;5055104;28;20032;-75
2023/12/31 07:13:31;;;;;;;3.58;1.52;;;8.70;99.90;;;;;;5038047;28;20036;-76
2023/12/31 07:16:00;;;;;;;4.25;1.95;;;8.80;99.90;;;;;;5021980;28;20052;-76
2023/12/31 07:18:26;;;;;;;5.93;2.10;;;8.70;99.90;;;;;;5038142;28;20191;-76
2023/12/31 07:20:55;;;;;;;6.25;1.83;;;8.70;99.90;;;;;;5054909;28;20523;-76
2023/12/31 07:23:21;;;;;;;5.43;2.10;;;8.70;99.90;;;;;;5054878;28;20056;-76
2023/12/31 07:25:47;;;;;;;3.10;1.35;;;8.70;99.90;;;;;;5038027;28;20037;-76
2023/12/31 07:28:13;;;;;;;4.10;2.10;;;8.70;99.90;;;;;;5038185;28;20044;-75
2023/12/31 07:30:44;;;;;;;4.55;2.05;;;8.70;99.90;;;;;;5054854;28;20131;-76
2023/12/31 07:33:10;;;;;;;5.43;1.55;;;8.70;99.90;;;;;;5038627;28;20173;-76
2023/12/31 07:35:36;;;;;;;3.40;1.73;;;8.70;99.90;;;;;;5038274;28;20532;-76
2023/12/31 07:38:03;;;;;;;3.67;1.50;;;8.70;99.90;;;;;;5022357;28;20029;-76
2023/12/31 07:40:30;;;;;;;5.15;1.60;;;8.70;99.90;;;;;;5054499;28;20044;-75
2023/12/31 07:42:56;;;;;;;4.25;1.88;;;8.70;99.90;;;;;;5038054;28;20120;-76
2023/12/31 07:45:21;;;;;;;2.30;1.20;;;8.70;99.90;;;;;;5057318;28;20123;-76
2023/12/31 07:47:48;;;;;;;4.05;1.80;;;8.70;99.90;;;;;;5058650;28;20037;-75
2023/12/31 07:50:14;;;;;;;4.10;1.90;;;8.70;99.90;;;;;;5025527;28;20079;-75
2023/12/31 07:52:40;;;;;;;3.72;1.67;;;8.80;99.90;;;;;;5058241;28;20049;-76
2023/12/31 07:55:10;;;;;;;3.00;1.10;;;8.70;99.90;;;;;;5041853;28;20539;-75
2023/12/31 07:57:36;;;;;;;3.35;1.17;;;8.80;99.90;;;;;;5042034;28;20076;-74
2023/12/31 08:00:07;;;;;;;3.17;1.15;;;8.80;99.90;;;;;;5041345;28;20060;-74
2023/12/31 08:02:33;;;;;;;2.58;1.10;;;8.80;99.90;;;;;;5058489;28;20110;-75
2023/12/31 08:04:58;;;;;;;4.82;1.80;;;8.80;99.90;;;;;;5058680;28;20044;-75
2023/12/31 08:07:24;;;;;;;3.05;1.45;;;8.80;99.90;;;;;;5025237;28;20044;-76
2023/12/31 08:09:50;;;;;;;3.08;1.20;;;8.80;99.90;;;;;;5058332;28;20037;-75
2023/12/31 08:12:16;;;;;;;4.07;1.27;;;8.80;99.90;;;;;;5041548;28;20076;-76
2023/12/31 08:14:41;;;;;;;4.80;2.10;;;8.80;99.90;;;;;;5057857;28;20048;-75
2023/12/31 08:17:08;;;;;;;2.78;1.08;;;8.90;99.90;;;;;;5041301;28;20036;-75
2023/12/31 08:19:33;;;;;;;4.35;1.90;;;8.90;99.90;;;;;;5041467;28;20114;-75
2023/12/31 08:21:59;;;;;;;4.72;2.10;;;8.80;99.90;;;;;;5041164;28;20040;-75
2023/12/31 08:24:25;;;;;;;4.30;1.98;;;8.80;99.90;;;;;;5041553;28;20043;-77
2023/12/31 08:26:51;;;;;;;4.15;1.73;;;8.80;99.90;;;;;;5041463;28;20504;-75
2023/12/31 08:29:17;;;;;;;3.45;1.35;;;8.90;99.90;;;;;;5041243;28;20071;-75
2023/12/31 08:31:54;;;;;;;2.90;1.25;;;9.00;99.90;;;;;;5041167;28;20489;-76
2023/12/31 08:34:20;;;;;;;2.70;1.13;;;9.00;99.90;;;;;;5057532;28;20047;-75
2023/12/31 08:36:46;;;;;;;5.32;2.25;;;9.10;99.90;;;;;;5057562;28;20032;-75
2023/12/31 08:39:12;;;;;;;5.03;2.38;;;9.10;99.90;;;;;;5057711;28;20119;-76
2023/12/31 08:41:37;;;;;;;5.18;1.85;;;9.00;99.90;;;;;;5057666;28;20037;-75
2023/12/31 08:44:03;;;;;;;4.82;2.20;;;9.00;99.90;;;;;;5024556;28;20173;-76
2023/12/31 08:46:30;;;;;;;4.28;2.00;;;9.10;99.90;;;;;;5057633;28;20044;-75
2023/12/31 08:48:56;;;;;;;6.28;2.30;;;9.10;99.90;;;;;;5040737;28;20040;-71
2023/12/31 08:51:22;;;;;;;4.15;1.75;;;9.10;99.90;;;;;;5057417;28;20036;-71
2023/12/31 08:53:48;;;;;;;3.75;1.58;;;9.20;99.90;;;;;;5040818;28;20037;-70
2023/12/31 08:56:14;;;;;;;3.90;1.70;;;9.20;99.90;;;;;;5055871;28;20115;-71
2023/12/31 08:58:39;;;;;;;4.55;1.73;;;9.20;99.90;;;;;;5023973;28;20500;-70
2023/12/31 09:01:05;;;;;;;3.50;1.40;;;9.30;99.90;;;;;;5040726;28;20459;-71
2023/12/31 09:03:31;;;;;;;4.30;1.35;;;9.30;99.90;;;;;;5057262;28;20046;-70
2023/12/31 09:05:57;;;;;;;5.05;2.00;;;9.40;99.90;;;;;;5040349;28;20084;-71
2023/12/31 09:08:22;;;;;;;4.20;1.60;;;9.30;99.90;;;;;;5040606;28;20142;-71
2023/12/31 09:10:49;;;;;;;4.38;1.90;;;9.30;99.90;;;;;;5057101;28;20051;-71
2023/12/31 09:13:14;;;;;;;5.00;2.17;;;9.30;99.90;;;;;;5057100;28;20489;-70
2023/12/31 09:15:42;;;;;;;3.58;1.65;;;9.30;99.90;;;;;;5056639;28;20044;-70
2023/12/31 09:18:08;;;;;;;5.07;2.40;;;9.30;99.90;;;;;;5040480;28;20471;-70
2023/12/31 09:20:34;;;;;;;3.15;1.17;;;9.40;99.90;;;;;;5023889;28;20032;-71
2023/12/31 09:22:59;;;;;;;4.55;2.08;;;9.40;99.90;;;;;;5007567;28;20040;-71
2023/12/31 09:25:26;;;;;;;8.32;2.20;;;9.40;99.90;;;;;;5007236;28;20040;-71
2023/12/31 09:27:53;;;;;;;3.28;1.40;;;9.40;99.90;;;;;;5056547;28;20056;-71
2023/12/31 09:30:19;;;;;;;5.03;2.15;;;9.40;99.90;;;;;;5040368;28;20523;-70
2023/12/31 09:32:45;;;;;;;5.60;2.08;;;9.40;99.90;;;;;;5040132;28;20040;-71
2023/12/31 09:35:11;;;;;;;4.20;2.13;;;9.40;99.90;;;;;;5039935;28;20040;-72
2023/12/31 09:37:36;;;;;;;4.82;2.10;;;9.50;99.90;;;;;;5056558;28;20480;-72
2023/12/31 09:40:03;;;;;;;7.15;3.45;;;9.50;99.90;;;;;;5006839;28;20488;-71
2023/12/31 09:42:42;;;;;;;4.35;1.83;;;9.60;99.90;;;;;;5023509;28;20558;-72
2023/12/31 09:45:10;;;;;;;4.85;2.25;;;9.60;99.90;;;;;;5056316;28;20040;-71
2023/12/31 09:47:36;;;;;;;5.25;2.17;;;9.60;99.90;;;;;;5056158;28;20051;-71
2023/12/31 09:50:03;;;;;;;3.47;1.33;;;9.60;99.90;;;;;;5007029;28;20400;-71
2023/12/31 09:52:31;;;;;;;5.60;2.50;;;9.60;99.90;;;;;;5039450;28;20040;-70
2023/12/31 09:54:58;;;;;;;5.63;2.10;;;9.60;99.90;;;;;;5039725;28;20131;-71
2023/12/31 09:57:25;;;;;;;3.78;1.50;;;9.60;99.90;;;;;;5056433;28;20090;-75
2023/12/31 09:59:53;;;;;;;4.53;1.88;;;9.70;99.90;;;;;;5039141;28;20084;-76
2023/12/31 10:02:22;;;;;;;5.78;2.58;;;9.70;99.90;;;;;;5056571;28;20480;-75
2023/12/31 10:04:51;;;;;;;6.50;2.53;;;9.70;99.90;;;;;;5055807;28;20053;-75
2023/12/31 10:07:17;;;;;;;5.68;2.05;;;9.70;99.90;;;;;;5055499;28;20113;-74
2023/12/31 10:09:44;;;;;;;4.57;1.85;;;9.70;99.90;;;;;;5022877;28;20074;-75
2023/12/31 10:12:11;;;;;;;4.18;1.73;;;9.80;99.90;;;;;;5039175;28;20044;-74
2023/12/31 10:14:37;;;;;;;5.28;2.22;;;9.80;99.90;;;;;;5055706;28;20048;-75
2023/12/31 10:17:07;;;;;;;4.50;1.75;;;9.80;99.90;;;;;;5022859;28;20496;-75
2023/12/31 10:19:33;;;;;;;5.25;2.58;;;9.80;99.90;;;;;;5038987;28;20040;-74
2023/12/31 10:21:59;;;;;;;4.38;1.67;;;9.80;99.90;;;;;;5039188;28;20532;-75
2023/12/31 10:24:29;;;;;;;4.90;1.92;;;9.90;99.90;;;;;;5055456;28;20079;-75
2023/12/31 10:26:56;;;;;;;3.10;1.35;;;9.90;99.90;;;;;;5039158;28;20052;-76
2023/12/31 10:29:21;;;;;;;3.72;1.50;;;9.90;99.90;;;;;;5055597;28;20051;-76
2023/12/31 10:31:48;;;;;;;4.15;1.90;;;10.00;99.90;;;;;;5055550;28;20127;-75
2023/12/31 10:34:17;;;;;;;6.07;2.40;;;10.00;99.90;;;;;;5038783;28;20399;-76
2023/12/31 10:36:47;;;;;;;5.00;2.20;;;10.00;99.90;;;;;;5038645;28;20038;-74
2023/12/31 10:39:29;;;;;;;4.50;2.20;;;10.00;99.90;;;;;;5055233;28;20040;-74
2023/12/31 10:42:00;;;;;;;6.65;3.17;;;10.10;99.90;;;;;;5038372;28;20075;-75
2023/12/31 10:44:26;;;;;;;5.72;2.47;;;10.10;99.90;;;;;;5022077;28;20044;-74
2023/12/31 10:47:00;;;;;;;4.78;2.40;;;10.20;99.90;;;;;;5055194;28;20044;-75
2023/12/31 10:49:27;;;;;;;6.50;3.10;;;10.20;99.90;;;;;;5055284;28;20099;-75
2023/12/31 10:51:54;;;;;;;7.63;3.40;;;10.30;99.90;;;;;;5022418;28;20094;-75
2023/12/31 10:54:48;;;;;;;6.85;3.75;;;10.20;99.90;;;;;;5038662;28;20054;-76
2023/12/31 10:57:20;;;;;;;6.97;3.08;;;10.20;99.90;;;;;;5050392;28;20052;-75
2023/12/31 10:59:48;;;;;;;4.25;1.90;;;10.30;99.90;;;;;;5022454;28;20135;-75
2023/12/31 11:02:20;;;;;;;5.22;2.10;;;10.30;99.90;;;;;;5038331;28;20059;-75
2023/12/31 11:04:47;;;;;;;4.88;2.15;;;10.30;99.90;;;;;;5038345;28;20045;-76
2023/12/31 11:07:20;;;;;;;5.60;2.80;;;10.20;99.90;;;;;;5054870;28;20048;-75
2023/12/31 11:09:48;;;;;;;4.85;2.25;;;10.20;99.90;;;;;;5038557;28;20044;-75
2023/12/31 11:12:15;;;;;;;5.22;2.38;;;10.20;99.90;;;;;;5038344;28;20131;-75
2023/12/31 11:14:47;;;;;;;5.10;2.55;;;10.10;99.90;;;;;;5038153;28;20047;-74
2023/12/31 11:17:31;;;;;;;5.03;2.45;;;10.20;99.90;;;;;;5054700;28;20037;-75
2023/12/31 11:20:15;;;;;;;5.63;2.40;;;10.10;99.90;;;;;;5037408;28;20048;-75
2023/12/31 11:23:15;;;;;;;5.75;2.53;;;10.20;99.90;;;;;;5054697;28;20071;-75
2023/12/31 11:25:44;;;;;;;6.13;3.50;;;10.20;99.90;;;;;;5038013;28;20078;-76
2023/12/31 11:28:10;;;;;;;7.22;2.85;;;10.20;99.90;;;;;;5037947;28;20193;-74
2023/12/31 11:30:55;;;;;;;6.70;3.78;;;10.20;99.90;;;;;;5038348;28;20119;-75
2023/12/31 11:33:32;;;;;;;7.57;4.07;;;10.20;99.90;;;;;;5037896;28;20105;-75
2023/12/31 11:36:15;;;;;;;10.27;6.35;;;10.10;99.90;;;;;;5054817;28;20747;-75
2023/12/31 11:38:57;;;;;;;9.45;6.18;;;10.00;99.90;;;;;;5054694;28;20400;-76
2023/12/31 11:41:24;;;;;;;8.30;5.53;;;9.90;99.90;;;;;;5054498;28;20044;-76
2023/12/31 11:43:51;;;;;;;10.32;6.63;;;9.80;99.90;;;;;;5054288;28;20041;-75
2023/12/31 11:46:35;;;;;;;8.77;6.00;;;9.80;99.90;;;;;;5021592;28;20140;-76
2023/12/31 11:49:01;;;;;;;8.98;5.80;;;9.80;99.90;;;;;;5054612;28;20048;-75
2023/12/31 11:51:56;;;;;;;6.30;3.88;;;9.80;99.90;;;;;;5038032;28;20091;-76
2023/12/31 11:54:23;;;;;;;6.72;3.78;;;9.70;99.90;;;;;;5054335;28;20037;-75
2023/12/31 11:56:51;;;;;;;6.10;3.63;;;9.70;99.90;;;;;;5054659;28;20534;-75
2023/12/31 11:59:17;;;;;;;6.47;3.42;;;9.80;99.90;;;;;;5053914;28;20048;-75
2023/12/31 12:01:44;;;;;;;6.22;3.35;;;9.70;99.90;;;;;;5038178;28;20036;-75
2023/12/31 12:04:12;;;;;;;5.82;2.10;;;9.60;99.90;;;;;;5054365;28;20044;-76
2023/12/31 12:06:39;;;;;;;3.75;1.10;;;9.60;99.90;;;;;;5037836;28;20064;-76
2023/12/31 12:09:05;;;;;;;2.78;1.00;;;9.50;99.90;;;;;;5037596;28;20040;-76
2023/12/31 12:11:32;;;;;;;2.80;0.80;;;9.30;99.90;;;;;;5054240;28;20040;-76
2023/12/31 12:14:00;;;;;;;2.63;0.82;;;9.10;99.90;;;;;;5021388;28;20524;-77
2023/12/31 12:16:28;;;;;;;2.90;0.80;;;8.90;99.90;;;;;;5054322;28;20393;-76
2023/12/31 12:19:04;;;;;;;2.22;0.80;;;8.80;99.90;;;;;;5037683;28;20105;-72
2023/12/31 12:21:30;;;;;;;1.45;0.70;;;8.70;99.90;;;;;;5053898;28;20048;-72
2023/12/31 12:23:56;;;;;;;2.60;0.80;;;8.60;99.90;;;;;;5054007;28;20048;-72
2023/12/31 12:26:22;;;;;;;2.80;0.70;;;8.60;99.90;;;;;;5037755;28;20036;-72
2023/12/31 12:28:55;;;;;;;1.88;0.75;;;8.50;99.90;;;;;;5054046;28;20134;-72
2023/12/31 12:31:22;;;;;;;2.33;0.80;;;8.50;99.90;;;;;;5023704;28;20037;-72
2023/12/31 12:33:55;;;;;;;2.50;0.90;;;8.50;99.90;;;;;;5057484;28;20045;-72
2023/12/31 12:36:21;;;;;;;3.30;1.00;;;8.40;99.90;;;;;;5024644;28;20045;-72
2023/12/31 12:38:48;;;;;;;3.00;0.90;;;8.40;99.90;;;;;;5040947;28;20119;-72
2023/12/31 12:41:23;;;;;;;2.83;0.90;;;8.40;99.90;;;;;;5057877;28;20041;-72
2023/12/31 12:44:07;;;;;;;2.30;0.90;;;8.40;99.90;;;;;;5057488;28;20049;-72
2023/12/31 12:46:34;;;;;;;3.33;1.10;;;8.40;99.90;;;;;;5040717;28;20493;-72
2023/12/31 12:49:03;;;;;;;4.18;1.30;;;8.40;99.90;;;;;;5057127;28;20044;-72
2023/12/31 12:51:29;;;;;;;4.28;1.60;;;8.40;99.90;;;;;;5057201;28;20052;-72
2023/12/31 12:53:55;;;;;;;4.03;1.40;;;8.40;99.90;;;;;;5057102;28;20497;-71